Flight Track Log - Related Links

Times and Time Zones

All times are in EDT time to prevent confusion due to time zone crossing. See the GJS3707 flight status page for this flight to view local times or setup timezone preferences in your user account.

Time Position Orientation Groundspeed Altitude Reporting Facility
EDT Latitude Longitude Course Direction KTS MPH feet Rate Location/Type
Thu 11:08:02 AM 42.0167 -87.9667 261° West 179 206 2,000  Level Chicago TRACON
Thu 11:10:00 AM 41.9333 -88.3321 270° West  Level FlightAware Approximate
Thu 11:10:06 AM 42.1089 -88.0764 319° Northwest 248 285 5,900  Level Chicago Center
Thu 11:11:00 AM 41.9156 -88.4761 261° West  Level FlightAware Approximate
Thu 11:11:08 AM 42.1756 -88.1239 332° Northwest 270 311 8,500  Level Chicago Center
Thu 11:12:00 AM 41.8986 -88.6213 261° West  Level FlightAware Approximate
Thu 11:12:10 AM 42.1469 -88.2378 251° West 283 326 11,600  Level Chicago Center
Thu 11:13:00 AM 41.8811 -88.7696 261° West  Level FlightAware Approximate
Thu 11:13:12 AM 42.0958 -88.3292 233° Southwest 307 353 12,800  Level Chicago Center
Thu 11:14:14 AM 42.0694 -88.4450 253° West 324 373 14,900 1,694 Climbing Chicago Center
Thu 11:15:16 AM 42.0581 -88.5650 263° West 331 381 16,300 1,561 Climbing Chicago Center
Thu 11:16:17 AM 42.0528 -88.6942 267° West 344 396 18,100 1,659 Climbing Chicago Center
Thu 11:17:19 AM 42.0489 -88.8264 268° West 353 406 19,700 1,694 Climbing Chicago Center
Thu 11:18:21 AM 42.0469 -88.9850 269° West 357 411 21,600 1,597 Climbing Chicago Center
Thu 11:19:23 AM 42.0486 -89.1211 271° West 365 420 23,000 1,113 Climbing Chicago Center
Thu 11:20:25 AM 42.0550 -89.2611 274° West 377 434 23,900 919 Climbing Chicago Center
Thu 11:21:27 AM 42.0600 -89.4039 273° West 385 443 24,900 1,065 Climbing Chicago Center
Thu 11:22:29 AM 42.0661 -89.5683 273° West 391 450 26,100 1,073 Climbing Chicago Center
Thu 11:23:30 AM 42.0708 -89.7256 272° West 398 458 27,100 976 Climbing Chicago Center
Thu 11:24:32 AM 42.0786 -89.8744 274° West 399 459 28,100 919 Climbing Chicago Center
Thu 11:25:34 AM 42.0861 -90.0114 274° West 399 459 29,000 774 Climbing Chicago Center
Thu 11:26:36 AM 42.0931 -90.1603 274° West 403 464 29,700 726 Climbing Chicago Center
Thu 11:27:38 AM 42.1000 -90.3461 273° West 413 475 30,500 726 Climbing Chicago Center
Thu 11:28:40 AM 42.1081 -90.4986 274° West 414 476 31,200 677 Climbing Chicago Center
Thu 11:29:42 AM 42.1172 -90.6539 275° West 418 481 31,900 677 Climbing Chicago Center
Thu 11:30:44 AM 42.1247 -90.8081 274° West 416 479 32,600 677 Climbing Chicago Center
Thu 11:31:46 AM 42.1292 -90.9636 272° West 418 481 33,300 677 Climbing Chicago Center
Thu 11:32:48 AM 42.1361 -91.1522 273° West 422 486 34,000 339 Climbing Chicago Center
Thu 11:33:50 AM 42.1417 -91.3089 273° West 422 486 34,000  Level Chicago Center
Thu 11:34:52 AM 42.1467 -91.4686 272° West 428 493 34,000  Level Chicago Center
Thu 11:35:54 AM 42.1514 -91.6231 272° West 417 480 34,000  Level Chicago Center
Thu 11:36:56 AM 42.1558 -91.7764 272° West 413 475 34,000  Level Chicago Center
Thu 11:37:58 AM 42.1594 -91.9283 272° West 409 471 34,000  Level Chicago Center
Thu 11:39:00 AM 42.1642 -92.1119 272° West 411 473 34,000 261 Level Chicago Center
Thu 11:39:53 AM 42.1825 -92.2314 282° West 412 474 34,500 522 Climbing Minneapolis Center
Thu 11:40:55 AM 42.2172 -92.3731 288° West 406 467 35,000 339 Climbing Minneapolis Center
Thu 11:41:57 AM 42.2519 -92.5194 288° West 407 468 35,200 435 Climbing Minneapolis Center
Thu 11:42:59 AM 42.2583 -92.7050 273° West 413 475 35,900 387 Climbing Minneapolis Center
Thu 11:44:01 AM 42.2639 -92.8611 273° West 416 479 36,000 48 Climbing Minneapolis Center
Thu 11:45:03 AM 42.2689 -93.0147 273° West 415 478 36,000  Level Minneapolis Center
Thu 11:46:05 AM 42.2731 -93.1667 272° West 411 473 36,000  Level Minneapolis Center
Thu 11:47:07 AM 42.2769 -93.3186 272° West 410 472 36,000  Level Minneapolis Center
Thu 11:48:21 AM 42.2806 -93.4978 272° West 402 463 36,000  Level Minneapolis Center
Thu 11:49:23 AM 42.2853 -93.6783 272° West 405 466 36,000  Level Minneapolis Center
Thu 11:50:25 AM 42.2886 -93.8275 272° West 402 463 36,000  Level Minneapolis Center
Thu 11:51:27 AM 42.2903 -93.9778 271° West 406 467 36,000  Level Minneapolis Center
Thu 11:52:29 AM 42.2939 -94.0961 272° West 400 460 36,000  Level Minneapolis Center
Thu 11:53:31 AM 42.2981 -94.2872 272° West 400 460 36,000  Level Minneapolis Center
Thu 11:54:33 AM 42.2997 -94.4353 271° West 396 456 36,000  Level Minneapolis Center
Thu 11:55:35 AM 42.3022 -94.6117 271° West 393 452 36,000  Level Minneapolis Center
Thu 11:56:37 AM 42.3033 -94.7564 271° West 387 445 36,000  Level Minneapolis Center
Thu 11:57:39 AM 42.3058 -94.9028 271° West 390 449 36,000  Level Minneapolis Center
Thu 11:58:41 AM 42.3067 -95.0497 270° West 391 450 36,000  Level Minneapolis Center
Thu 11:59:43 AM 42.3081 -95.1978 271° West 394 453 36,000  Level Minneapolis Center
Thu 12:00:45 PM 42.3097 -95.3506 271° West 404 465 36,000  Level Minneapolis Center
Thu 12:01:47 PM 42.3106 -95.5306 270° West 402 463 36,000  Level Minneapolis Center
Thu 12:03:00 PM 42.2867 -95.7084 260° West  Level FlightAware Approximate
Thu 12:03:51 PM 42.3119 -95.8303 260° West 400 460 36,000  Level Minneapolis Center
Thu 12:04:53 PM 42.3119 -95.9797 270° West 400 460 36,000  Level Minneapolis Center
Thu 12:05:55 PM 42.3125 -96.1272 270° West 397 457 36,000  Level Minneapolis Center
Thu 12:06:57 PM 42.3119 -96.2753 270° West 396 456 36,000  Level Minneapolis Center
Thu 12:07:59 PM 42.3125 -96.4517 270° West 394 453 36,000  Level Minneapolis Center
Thu 12:09:01 PM 42.3128 -96.5989 270° West 394 453 36,000  Level Minneapolis Center
Thu 12:10:03 PM 42.3117 -96.7500 269° West 401 461 36,000  Level Minneapolis Center
Thu 12:11:05 PM 42.3106 -96.9039 269° West 406 467 36,000  Level Minneapolis Center
Thu 12:12:06 PM 42.3089 -97.0558 269° West 408 470 36,000  Level Minneapolis Center
Thu 12:13:08 PM 42.3078 -97.2094 269° West 409 471 36,000  Level Minneapolis Center
Thu 12:14:10 PM 42.3061 -97.3611 269° West 408 470 36,000  Level Minneapolis Center
Thu 12:15:12 PM 42.3047 -97.5425 269° West 404 465 36,000  Level Minneapolis Center
Thu 12:16:14 PM 42.3031 -97.6922 269° West 403 464 36,000  Level Minneapolis Center
Thu 12:17:16 PM 42.3014 -97.8553 269° West 401 461 36,000  Level Minneapolis Center
Thu 12:18:18 PM 42.3000 -97.9756 269° West 401 461 36,000  Level Minneapolis Center
Thu 12:19:20 PM 42.2967 -98.1544 269° West 398 458 36,000  Level Minneapolis Center
Thu 12:20:22 PM 42.2939 -98.3031 269° West 398 458 36,000  Level Minneapolis Center
Thu 12:21:24 PM 42.2906 -98.4517 268° West 396 456 36,000  Level Minneapolis Center
Thu 12:22:26 PM 42.2872 -98.6286 269° West 395 455 36,000  Level Minneapolis Center
Thu 12:23:28 PM 42.2839 -98.7764 268° West 395 455 36,000  Level Minneapolis Center
Thu 12:24:30 PM 42.2811 -98.8956 268° West 397 457 36,000  Level Minneapolis Center
Thu 12:25:32 PM 42.2767 -99.0767 268° West 402 463 36,000  Level Minneapolis Center
Thu 12:26:34 PM 42.2728 -99.2292 268° West 406 467 36,000 -48 Level Minneapolis Center
Thu 12:27:36 PM 42.2692 -99.3825 268° West 409 471 35,900  Descending Minneapolis Center
Thu 12:28:22 PM 42.2819 -99.5067 278° West 419 482 36,000 56 Climbing Denver Center
Thu 12:29:24 PM 42.3108 -99.6892 282° West 434 499 36,000  Level Denver Center
Thu 12:30:26 PM 42.3344 -99.8408 282° West 434 499 36,000  Level Denver Center
Thu 12:31:28 PM 42.3614 -100.0203 282° West 438 504 36,000  Level Denver Center
Thu 12:32:30 PM 42.3842 -100.1778 281° West 445 512 36,000  Level Denver Center
Thu 12:33:32 PM 42.4106 -100.3581 281° West 442 509 36,000  Level Denver Center
Thu 12:34:34 PM 42.4339 -100.5167 281° West 447 514 36,000  Level Denver Center
Thu 12:35:36 PM 42.4606 -100.7025 281° West 451 519 36,000  Level Denver Center
Thu 12:36:38 PM 42.4811 -100.8589 280° West 445 512 36,000  Level Denver Center
Thu 12:37:40 PM 42.5064 -101.0394 281° West 439 505 36,000  Level Denver Center
Thu 12:38:42 PM 42.5278 -101.1942 281° West 438 504 36,000  Level Denver Center
Thu 12:39:45 PM 42.5494 -101.3525 281° West 447 514 36,000  Level Denver Center
Thu 12:41:49 PM 42.5950 -101.6994 280° West 451 519 36,000  Level Denver Center
Thu 12:42:51 PM 42.6211 -101.8981 280° West 459 528 36,000  Level Denver Center
Thu 12:43:53 PM 42.6417 -102.0617 280° West 460 529 36,000  Level Denver Center
Thu 12:44:55 PM 42.6672 -102.2547 280° West 464 534 36,000  Level Denver Center
Thu 12:45:57 PM 42.6889 -102.4206 280° West 466 536 36,000  Level Denver Center
Thu 12:46:59 PM 42.7092 -102.5864 280° West 466 536 36,000  Level Denver Center
Thu 12:48:01 PM 42.7325 -102.7783 279° West 460 529 36,000  Level Denver Center
Thu 12:49:03 PM 42.7531 -102.9397 280° West 455 524 36,000  Level Denver Center
Thu 12:50:05 PM 42.7733 -103.1244 279° West 443 510 36,000  Level Denver Center
Thu 12:51:07 PM 42.7928 -103.2800 280° West 439 505 36,000  Level Denver Center
Thu 12:52:09 PM 42.8142 -103.4633 279° West 440 506 36,000  Level Denver Center
Thu 12:53:11 PM 42.8311 -103.6208 278° West 440 506 36,000  Level Denver Center
Thu 12:54:13 PM 42.8514 -103.8031 279° West 438 504 36,000  Level Denver Center
Thu 12:55:15 PM 42.8697 -103.9553 279° West 429 494 36,000  Level Denver Center
Thu 12:56:17 PM 42.8889 -104.1322 278° West 426 490 36,000  Level Denver Center
Thu 12:57:19 PM 42.9058 -104.2819 279° West 423 487 36,000  Level Denver Center
Thu 12:58:21 PM 42.9244 -104.4561 278° West 421 484 36,000  Level Denver Center
Thu 12:59:23 PM 42.9403 -104.6044 278° West 419 482 36,000  Level Denver Center
Thu 01:00:25 PM 42.9583 -104.7764 278° West 415 478 36,000  Level Denver Center
Thu 01:01:27 PM 42.9733 -104.9247 278° West 414 476 36,000  Level Denver Center
Thu 01:02:30 PM 42.9900 -105.0989 278° West 416 479 36,000  Level Denver Center
Thu 01:03:32 PM 43.0053 -105.2506 278° West 421 484 36,000  Level Denver Center
Thu 01:04:34 PM 43.0228 -105.4253 278° West 416 479 36,000  Level Denver Center
Thu 01:05:36 PM 43.0372 -105.5764 278° West 418 481 36,000  Level Denver Center
Thu 01:06:38 PM 43.0533 -105.7511 277° West 417 480 36,000  Level Denver Center
Thu 01:07:40 PM 43.0675 -105.9011 277° West 417 480 36,000  Level Denver Center
Thu 01:08:42 PM 43.0842 -106.0756 278° West 417 480 36,000  Level Denver Center
Thu 01:09:44 PM 43.0972 -106.2253 277° West 415 478 36,000  Level Denver Center
Thu 01:10:46 PM 43.1136 -106.3967 278° West 407 468 36,000  Level Denver Center
Thu 01:11:48 PM 43.1258 -106.5411 277° West 399 459 36,000  Level Denver Center
Thu 01:12:50 PM 43.1406 -106.7089 277° West 397 457 36,000  Level Denver Center
Thu 01:13:52 PM 43.1533 -106.8533 277° West 399 459 36,000  Level Denver Center
Thu 01:14:54 PM 43.1669 -107.0206 276° West 403 464 36,000  Level Denver Center
Thu 01:15:56 PM 43.1783 -107.1672 276° West 404 465 36,000  Level Denver Center
Thu 01:16:58 PM 43.1922 -107.3392 276° West 405 466 36,000  Level Denver Center
Thu 01:18:00 PM 43.2047 -107.4872 277° West 406 467 36,000  Level Denver Center
Thu 01:19:02 PM 43.2186 -107.6583 276° West 404 465 36,000  Level Denver Center
Thu 01:20:04 PM 43.2294 -107.8014 276° West 396 456 36,000  Level Denver Center
Thu 01:21:13 PM 43.2422 -107.9717 276° West 399 459 36,000  Level Salt Lake Center
Thu 01:22:14 PM 43.2550 -108.1439 276° West 404 465 36,000  Level Salt Lake Center
Thu 01:23:16 PM 43.2653 -108.2900 276° West 404 465 36,000  Level Salt Lake Center
Thu 01:24:18 PM 43.2764 -108.4375 276° West 405 466 36,000  Level Salt Lake Center
Thu 01:25:19 PM 43.2892 -108.6083 276° West 403 464 36,000  Level Salt Lake Center
Thu 01:26:21 PM 43.2981 -108.7503 275° West 396 456 36,000  Level Salt Lake Center
Thu 01:27:23 PM 43.3100 -108.9175 276° West 393 452 36,000  Level Salt Lake Center
Thu 01:28:24 PM 43.3189 -109.0617 275° West 394 453 36,000  Level Salt Lake Center
Thu 01:29:26 PM 43.3286 -109.2042 275° West 394 453 36,000  Level Salt Lake Center
Thu 01:30:28 PM 43.3392 -109.3711 275° West 394 453 36,000  Level Salt Lake Center
Thu 01:31:29 PM 43.3478 -109.5158 275° West 396 456 36,000  Level Salt Lake Center
Thu 01:32:31 PM 43.3589 -109.6839 275° West 397 457 36,000  Level Salt Lake Center
Thu 01:33:33 PM 43.3675 -109.8297 275° West 399 459 36,000  Level Salt Lake Center
Thu 01:34:34 PM 43.3761 -109.9761 275° West 393 452 36,000  Level Salt Lake Center
Thu 01:35:36 PM 43.3861 -110.1436 275° West 394 453 36,000  Level Salt Lake Center
Thu 01:36:38 PM 43.3939 -110.2864 274° West 393 452 36,000  Level Salt Lake Center
Thu 01:37:39 PM 43.4028 -110.4553 274° West 397 457 36,000  Level Salt Lake Center
Thu 01:38:41 PM 43.4100 -110.6064 274° West 397 457 36,000  Level Salt Lake Center
Thu 01:39:43 PM 43.4178 -110.7497 274° West 394 453 36,000  Level Salt Lake Center
Thu 01:40:45 PM 43.4261 -110.9175 274° West 394 453 36,000  Level Salt Lake Center
Thu 01:41:46 PM 43.4333 -111.0633 274° West 397 457 36,000  Level Salt Lake Center
Thu 01:42:48 PM 43.4408 -111.2069 274° West 392 451 36,000  Level Salt Lake Center
Thu 01:43:50 PM 43.4472 -111.3764 273° West 396 456 36,000  Level Salt Lake Center
Thu 01:44:52 PM 43.4539 -111.5222 274° West 398 458 36,000  Level Salt Lake Center
Thu 01:45:54 PM 43.4606 -111.6911 273° West 396 456 36,000  Level Salt Lake Center
Thu 01:46:56 PM 43.4678 -111.8350 274° West 395 455 36,000  Level Salt Lake Center
Thu 01:47:57 PM 43.4742 -112.0044 273° West 396 456 36,000  Level Salt Lake Center
Thu 01:48:59 PM 43.4806 -112.1500 274° West 396 456 36,000  Level Salt Lake Center
Thu 01:50:01 PM 43.4867 -112.3183 273° West 394 453 36,000  Level Salt Lake Center
Thu 01:51:03 PM 43.4919 -112.4611 273° West 391 450 36,000  Level Salt Lake Center
Thu 01:52:05 PM 43.4969 -112.6019 273° West 385 443 36,000  Level Salt Lake Center
Thu 01:53:07 PM 43.5003 -112.7647 272° West 383 441 36,000  Level Salt Lake Center
Thu 01:54:09 PM 43.5064 -112.9064 273° West 384 442 36,000  Level Salt Lake Center
Thu 01:55:11 PM 43.5111 -113.0686 272° West 381 438 36,000  Level Salt Lake Center
Thu 01:56:13 PM 43.5144 -113.2064 272° West 379 436 36,000  Level Salt Lake Center
Thu 01:57:15 PM 43.5192 -113.3664 272° West 374 430 36,000  Level Salt Lake Center
Thu 01:58:17 PM 43.5236 -113.5031 273° West 372 428 36,000  Level Salt Lake Center
Thu 01:59:19 PM 43.5297 -113.6667 273° West 374 430 36,000  Level Salt Lake Center
Thu 02:00:21 PM 43.5322 -113.8014 272° West 369 425 36,000  Level Salt Lake Center
Thu 02:01:23 PM 43.5364 -113.9406 272° West 374 430 36,000 -48 Level Salt Lake Center
Thu 02:02:25 PM 43.5386 -114.0978 271° West 369 425 35,900 -629 Descending Salt Lake Center
Thu 02:03:27 PM 43.5567 -114.2350 280° West 381 438 34,700 -1,597 Descending Salt Lake Center
Thu 02:04:29 PM 43.5925 -114.3911 288° West 382 440 32,600 -1,306 Descending Salt Lake Center
Thu 02:05:31 PM 43.6250 -114.5161 290° West 370 426 32,000 -774 Descending Salt Lake Center
Thu 02:06:33 PM 43.6211 -114.6700 268° West 357 411 31,000 -1,597 Descending Salt Lake Center
Thu 02:07:35 PM 43.6181 -114.7950 268° West 337 388 28,700 -2,488 Descending Salt Lake Center
Thu 02:08:36 PM 43.6139 -114.9356 268° West 323 372 25,900 -2,537 Descending Salt Lake Center
Thu 02:09:38 PM 43.6100 -115.0561 267° West 325 374 23,500 -2,323 Descending Salt Lake Center
Thu 02:10:40 PM 43.6050 -115.1769 267° West 329 379 21,100 -2,613 Descending Salt Lake Center
Thu 02:11:42 PM 43.6000 -115.3206 267° West 326 375 18,100 -2,661 Descending Salt Lake Center
Thu 02:12:44 PM 43.5961 -115.4489 268° West 323 372 15,600 -2,129 Descending Salt Lake Center
Thu 02:13:46 PM 43.5908 -115.5675 267° West 322 371 13,700 -1,694 Descending Salt Lake Center
Thu 02:14:48 PM 43.5858 -115.6872 267° West 302 348 12,100 -1,610 Descending Salt Lake Center
Thu 02:15:49 PM 43.5817 -115.8014 267° West 286 329 10,400 -1,756 Descending Salt Lake Center
Thu 02:16:51 PM 43.5269 -115.8586 217° Southwest 266 306 8,500 -1,403 Descending Salt Lake Center
Thu 02:17:53 PM 43.4592 -115.8733 189° South 235 270 7,500 -919 Descending Salt Lake Center
Thu 02:18:55 PM 43.4386 -115.9247 241° Southwest 198 228 6,600 -629 Descending Salt Lake Center
Thu 02:19:57 PM 43.4722 -115.9778 311° West 193 222 6,200 -435 Descending Salt Lake Center
Thu 02:20:59 PM 43.5031 -116.0428 303° West 194 223 5,700 -774 Descending Salt Lake Center
Thu 02:22:01 PM 43.5258 -116.1106 295° West 190 219 4,600 -976 Descending Salt Lake Center
Thu 02:23:02 PM 43.5422 -116.1561 296° West 156 180 3,700 -885 Descending Salt Lake Center
Thu 02:25:00 PM 43.5500 -116.2167 251° West  Level FlightAware Approximate
Thu 02:32:00 PM 43.5644 -116.2229 251° West  Level Estimated
Thu 02:33:00 PM 43.5644 -116.2229 251° West  Level Estimated

Login

Don't have an account? Register now (free) for customized features, flight alerts, and more!